Terminal Aerodrome Forecast
Issued by NWS

Home | Current Version | Previous Version | Text Only | Print | Product List | Glossary Off
Versions: 1 2 3 4 5 6 7 8 9 10 11 12 13 14 15 16 17 18 19 20 21 22 23 24 25 26 27 28 29 30 31 32 33 34 35 36 37 38

000
FTUS43 KLOT 020741 AAA
TAFORD
TAF AMD
KORD 020741Z 0208/0312 03008KT P6SM SCT120 BKN250
      TEMPO 0208/0209 BKN012
     FM021000 03008KT P6SM SCT006 SCT250
     FM021400 05012KT P6SM SCT020 SCT250
     FM030200 04008KT P6SM FEW040 SCT250=

USA.gov is the U.S. government's official web portal to all federal, state and local government web resources and services.